createdAt,value
2023-03-21T00:00:22.541Z,0.52
2023-03-21T00:04:22.566Z,0.50
2023-03-21T00:08:22.500Z,0.51
2023-03-21T00:12:22.441Z,0.52
2023-03-21T00:16:28.344Z,0.51
2023-03-21T00:20:23.355Z,0.51
2023-03-21T00:24:22.328Z,0.51
2023-03-21T00:28:22.268Z,0.51
2023-03-21T00:32:22.264Z,0.51
2023-03-21T00:36:22.250Z,0.50
2023-03-21T00:40:29.368Z,0.51
2023-03-21T00:44:23.215Z,0.51
2023-03-21T00:48:22.225Z,0.51
2023-03-21T00:52:30.782Z,0.52
2023-03-21T00:56:23.088Z,0.50
2023-03-21T01:00:22.068Z,0.51
2023-03-21T01:04:22.078Z,0.51
2023-03-21T01:08:28.191Z,0.51
2023-03-21T01:12:22.982Z,0.51
2023-03-21T01:16:21.965Z,0.51
2023-03-21T01:20:21.908Z,0.51
2023-03-21T01:24:22.238Z,0.52
2023-03-21T01:28:21.930Z,0.52
2023-03-21T01:32:21.938Z,0.50
2023-03-21T01:36:23.498Z,0.52
2023-03-21T01:40:21.800Z,0.51
2023-03-21T01:44:21.812Z,0.53
2023-03-21T01:48:21.839Z,0.51
2023-03-21T01:52:35.491Z,0.51
2023-03-21T01:56:22.882Z,0.52
2023-03-21T02:00:21.836Z,0.50
2023-03-21T02:04:21.847Z,0.53
2023-03-21T02:08:25.873Z,0.51
2023-03-21T02:12:22.808Z,0.51
2023-03-21T02:16:21.830Z,0.51
2023-03-21T02:20:21.765Z,0.52
2023-03-21T02:24:21.821Z,0.52
2023-03-21T02:28:21.864Z,0.51
2023-03-21T02:32:36.308Z,0.51
2023-03-21T02:36:22.917Z,0.51
2023-03-21T02:40:21.861Z,0.52
2023-03-21T02:44:21.834Z,0.51
2023-03-21T02:48:29.271Z,0.52
2023-03-21T02:52:37.378Z,0.51
2023-03-21T02:56:22.821Z,0.50
2023-03-21T03:00:21.745Z,0.51
2023-03-21T03:04:21.764Z,0.51
2023-03-21T03:08:26.634Z,0.51
2023-03-21T03:12:22.645Z,0.51
2023-03-21T03:16:21.617Z,0.51
2023-03-21T03:20:21.574Z,0.51
2023-03-21T03:24:21.559Z,0.52
2023-03-21T03:28:21.542Z,0.51
2023-03-21T03:32:21.612Z,0.51
2023-03-21T03:36:31.547Z,0.52
2023-03-21T03:40:22.667Z,0.51
2023-03-21T03:44:21.609Z,0.52
2023-03-21T03:48:21.624Z,0.52
2023-03-21T03:52:21.537Z,0.51
2023-03-21T03:56:21.490Z,0.51
2023-03-21T04:00:21.508Z,0.51
2023-03-21T04:04:21.641Z,0.52
2023-03-21T04:08:21.651Z,0.51
2023-03-21T04:12:21.774Z,0.51
2023-03-21T04:16:21.853Z,0.51
2023-03-21T04:20:35.615Z,0.51
2023-03-21T04:24:22.902Z,0.52
2023-03-21T04:28:21.854Z,0.51
2023-03-21T04:32:21.818Z,0.51
2023-03-21T04:36:21.764Z,0.53
2023-03-21T04:40:21.806Z,0.52
2023-03-21T04:44:21.927Z,0.51
2023-03-21T04:48:22.018Z,0.52
2023-03-21T04:52:23.757Z,0.50
2023-03-21T04:56:22.069Z,0.51
2023-03-21T05:00:22.037Z,0.51
2023-03-21T05:04:22.066Z,0.50
2023-03-21T05:08:21.958Z,0.51
2023-03-21T05:12:21.911Z,0.50
2023-03-21T05:16:21.922Z,0.52
2023-03-21T05:20:22.160Z,0.51
2023-03-21T05:24:21.783Z,0.52
2023-03-21T05:28:21.741Z,0.50
2023-03-21T05:32:21.727Z,0.51
2023-03-21T05:36:21.700Z,0.52
2023-03-21T05:40:21.655Z,0.50
2023-03-21T05:44:21.613Z,0.53
2023-03-21T05:48:21.620Z,0.52
2023-03-21T05:52:21.559Z,0.53
2023-03-21T05:56:21.496Z,0.52
2023-03-21T06:00:21.596Z,0.52
2023-03-21T06:04:21.706Z,0.51
2023-03-21T06:08:21.860Z,0.51
2023-03-21T06:12:21.982Z,0.52
2023-03-21T06:16:22.159Z,0.53
2023-03-21T06:20:22.262Z,0.51
2023-03-21T06:24:22.353Z,0.52
2023-03-21T06:28:22.466Z,0.52
2023-03-21T06:32:22.637Z,0.52
2023-03-21T06:36:22.742Z,0.51
2023-03-21T06:40:23.200Z,0.51
2023-03-21T06:44:22.957Z,0.53
2023-03-21T06:48:23.205Z,0.57
2023-03-21T06:52:23.013Z,0.84
2023-03-21T06:56:23.193Z,0.81
2023-03-21T07:00:23.173Z,0.89
2023-03-21T07:04:22.891Z,0.97
2023-03-21T07:08:22.875Z,1.03
2023-03-21T07:12:22.845Z,1.10
2023-03-21T07:16:23.234Z,2.85
2023-03-21T07:20:22.777Z,2.25
2023-03-21T07:24:22.728Z,2.03
2023-03-21T07:28:22.701Z,1.83
2023-03-21T07:32:22.776Z,1.83
2023-03-21T07:36:22.734Z,1.84
2023-03-21T07:40:22.677Z,1.85
2023-03-21T07:44:22.653Z,1.84
2023-03-21T07:48:22.785Z,1.79
2023-03-21T07:52:22.743Z,1.75
2023-03-21T07:56:22.734Z,1.84
2023-03-21T08:00:22.531Z,1.98
2023-03-21T08:04:22.486Z,2.06
2023-03-21T08:08:22.427Z,2.18
2023-03-21T08:12:22.424Z,2.28
2023-03-21T08:16:22.420Z,2.67
2023-03-21T08:20:22.324Z,2.57
2023-03-21T08:24:22.392Z,2.64
2023-03-21T08:28:22.483Z,2.71
2023-03-21T08:32:22.511Z,2.67
2023-03-21T08:36:22.539Z,2.74
2023-03-21T08:40:22.736Z,2.72
2023-03-21T08:44:22.525Z,2.63
2023-03-21T08:48:22.769Z,2.59
2023-03-21T08:52:22.741Z,1.39
2023-03-21T08:56:22.674Z,1.27
2023-03-21T09:00:23.757Z,1.54
2023-03-21T09:04:23.267Z,1.72
2023-03-21T09:08:22.869Z,1.90
2023-03-21T09:12:22.853Z,2.16
2023-03-21T09:16:22.845Z,2.42
2023-03-21T09:20:22.789Z,2.65
2023-03-21T09:24:22.753Z,3.13
2023-03-21T09:28:22.717Z,3.31
2023-03-21T09:32:22.694Z,3.47
2023-03-21T09:36:22.759Z,3.62
2023-03-21T09:40:22.761Z,3.41
2023-03-21T09:44:22.561Z,1.12
2023-03-21T09:48:22.776Z,1.23
2023-03-21T09:52:22.739Z,1.16
2023-03-21T09:56:22.784Z,0.67
2023-03-21T10:00:22.520Z,0.51
2023-03-21T10:04:22.515Z,0.59
2023-03-21T10:08:22.796Z,0.88
2023-03-21T10:12:22.323Z,1.19
2023-03-21T10:16:22.589Z,1.39
2023-03-21T10:20:22.622Z,1.52
2023-03-21T10:24:22.771Z,1.51
2023-03-21T10:28:22.424Z,1.64
2023-03-21T10:32:22.879Z,1.63
2023-03-21T10:36:22.377Z,1.66
2023-03-21T10:40:22.785Z,1.64
2023-03-21T10:44:22.306Z,1.23
2023-03-21T10:48:22.403Z,1.35
2023-03-21T10:52:22.192Z,1.47
2023-03-21T10:56:22.178Z,1.67
2023-03-21T11:00:22.277Z,1.86
2023-03-21T11:04:22.246Z,1.78
2023-03-21T11:08:22.405Z,1.39
2023-03-21T11:12:22.534Z,1.43
2023-03-21T11:16:22.709Z,1.41
2023-03-21T11:20:22.826Z,1.40
2023-03-21T11:24:23.012Z,1.50
2023-03-21T11:28:23.136Z,1.42
2023-03-21T11:32:23.219Z,1.37
2023-03-21T11:36:23.862Z,1.28
2023-03-21T11:40:23.873Z,1.46
2023-03-21T11:44:23.517Z,1.36
2023-03-21T11:48:23.628Z,1.53
2023-03-21T11:52:23.587Z,1.82
2023-03-21T11:56:23.826Z,2.24
2023-03-21T12:00:23.722Z,2.59
2023-03-21T12:04:23.635Z,3.09
2023-03-21T12:08:23.562Z,3.74
2023-03-21T12:12:30.010Z,4.05
2023-03-21T12:16:24.595Z,4.27
2023-03-21T12:20:23.467Z,4.76
2023-03-21T12:24:23.418Z,5.10
2023-03-21T12:28:32.389Z,5.52
2023-03-21T12:32:24.850Z,6.05
2023-03-21T12:36:23.873Z,6.89
2023-03-21T12:40:23.434Z,6.61
2023-03-21T12:44:23.593Z,6.22
2023-03-21T12:48:23.934Z,5.83
2023-03-21T12:52:23.783Z,5.55
2023-03-21T12:56:23.929Z,5.44
2023-03-21T13:00:24.251Z,5.02
2023-03-21T13:04:24.891Z,4.43
2023-03-21T13:08:24.105Z,1.64
2023-03-21T13:12:24.056Z,0.74
2023-03-21T13:16:24.147Z,0.51
2023-03-21T13:20:23.993Z,0.50
2023-03-21T13:24:24.333Z,0.54
2023-03-21T13:28:23.919Z,1.12
2023-03-21T13:32:23.976Z,1.63
2023-03-21T13:36:23.849Z,1.84
2023-03-21T13:40:23.821Z,2.16
2023-03-21T13:44:23.789Z,2.36
2023-03-21T13:48:23.891Z,2.76
2023-03-21T13:52:23.695Z,3.05
2023-03-21T13:56:23.690Z,4.61
2023-03-21T14:00:23.709Z,4.33
2023-03-21T14:04:27.186Z,4.97
2023-03-21T14:08:36.443Z,5.23
2023-03-21T14:12:24.550Z,5.55
2023-03-21T14:16:23.509Z,6.00
2023-03-21T14:20:23.969Z,6.07
2023-03-21T14:24:23.409Z,6.25
2023-03-21T14:28:23.892Z,6.26
2023-03-21T14:32:23.322Z,6.14
2023-03-21T14:36:23.380Z,6.40
2023-03-21T14:40:23.287Z,6.36
2023-03-21T14:44:23.257Z,6.41
2023-03-21T14:48:23.286Z,6.61
2023-03-21T14:52:23.259Z,7.02
2023-03-21T14:56:23.249Z,6.70
2023-03-21T15:00:23.384Z,6.30
2023-03-21T15:04:23.526Z,5.90
2023-03-21T15:08:23.988Z,6.17
2023-03-21T15:12:24.625Z,5.99
2023-03-21T15:16:23.978Z,5.94
2023-03-21T15:20:24.116Z,5.92
2023-03-21T15:24:24.314Z,5.69
2023-03-21T15:28:24.421Z,5.77
2023-03-21T15:32:24.603Z,5.57
2023-03-21T15:36:24.819Z,5.41
2023-03-21T15:40:25.069Z,5.22
2023-03-21T15:44:25.225Z,4.96
2023-03-21T15:48:25.443Z,4.91
2023-03-21T15:52:25.660Z,4.87
2023-03-21T15:56:25.950Z,4.65
2023-03-21T16:00:25.870Z,4.60
2023-03-21T16:04:25.774Z,4.45
2023-03-21T16:08:25.716Z,4.30
2023-03-21T16:12:25.789Z,4.19
2023-03-21T16:16:25.720Z,4.08
2023-03-21T16:20:25.662Z,3.97
2023-03-21T16:24:25.592Z,3.89
2023-03-21T16:28:25.609Z,3.74
2023-03-21T16:32:25.529Z,3.62
2023-03-21T16:36:25.489Z,3.57
2023-03-21T16:40:25.446Z,3.53
2023-03-21T16:44:25.446Z,3.30
2023-03-21T16:48:25.500Z,3.27
2023-03-21T16:52:26.450Z,3.18
2023-03-21T16:56:25.445Z,3.12
2023-03-21T17:00:25.405Z,2.98
2023-03-21T17:04:25.389Z,2.95
2023-03-21T17:08:25.393Z,2.88
2023-03-21T17:12:25.355Z,2.77
2023-03-21T17:16:26.922Z,2.79
2023-03-21T17:20:25.409Z,2.67
2023-03-21T17:24:25.427Z,2.68
2023-03-21T17:28:25.435Z,2.62
2023-03-21T17:32:25.504Z,2.56
2023-03-21T17:36:25.550Z,2.52
2023-03-21T17:40:25.631Z,2.44
2023-03-21T17:44:25.733Z,2.43
2023-03-21T17:48:25.755Z,2.40
2023-03-21T17:52:25.847Z,2.36
2023-03-21T17:56:25.904Z,2.32
2023-03-21T18:00:26.058Z,2.29
2023-03-21T18:04:26.278Z,2.23
2023-03-21T18:08:26.228Z,2.23
2023-03-21T18:12:26.390Z,2.17
2023-03-21T18:16:26.420Z,2.16
2023-03-21T18:20:44.454Z,2.13
2023-03-21T18:24:27.453Z,2.05
2023-03-21T18:28:26.406Z,2.06
2023-03-21T18:32:26.490Z,1.98
2023-03-21T18:36:28.707Z,1.97
2023-03-21T18:40:26.345Z,1.91
2023-03-21T18:44:26.303Z,1.90
2023-03-21T18:48:26.344Z,1.88
2023-03-21T18:52:26.535Z,1.86
2023-03-21T19:00:27.228Z,1.82
2023-03-21T19:04:30.316Z,1.78
2023-03-21T19:08:26.084Z,1.75
2023-03-21T19:12:26.042Z,1.73
2023-03-21T19:16:30.772Z,1.67
2023-03-21T19:20:26.990Z,1.68
2023-03-21T19:24:28.567Z,1.66
2023-03-21T19:28:25.913Z,1.63
2023-03-21T19:32:25.867Z,1.58
2023-03-21T19:36:26.412Z,1.57
2023-03-21T19:40:25.800Z,1.55
2023-03-21T19:44:25.748Z,1.54
2023-03-21T19:48:27.088Z,1.53
2023-03-21T19:52:25.711Z,1.49
2023-03-21T19:56:27.289Z,1.46
2023-03-21T20:00:25.623Z,1.44
2023-03-21T20:04:25.597Z,1.44
2023-03-21T20:08:25.555Z,1.38
2023-03-21T20:12:25.642Z,1.40
2023-03-21T20:16:33.659Z,1.38
2023-03-21T20:20:26.752Z,1.38
2023-03-21T20:24:25.732Z,1.35
2023-03-21T20:28:28.459Z,1.34
2023-03-21T20:32:25.645Z,1.33
2023-03-21T20:36:43.105Z,1.29
2023-03-21T20:40:26.617Z,1.28
2023-03-21T20:44:48.411Z,1.28
2023-03-21T20:48:26.518Z,1.26
2023-03-21T20:52:57.841Z,1.27
2023-03-21T20:56:26.466Z,1.25
2023-03-21T21:00:25.402Z,1.22
2023-03-21T21:04:44.203Z,1.22
2023-03-21T21:08:26.565Z,1.21
2023-03-21T21:12:26.034Z,1.19
2023-03-21T21:16:25.796Z,1.22
2023-03-21T21:20:25.939Z,1.18
2023-03-21T21:24:26.181Z,1.17
2023-03-21T21:28:26.353Z,1.16
2023-03-21T21:32:26.568Z,1.15
2023-03-21T21:36:26.793Z,1.11
2023-03-21T21:40:27.015Z,1.10
2023-03-21T21:44:27.222Z,1.10
2023-03-21T21:48:27.170Z,1.08
2023-03-21T21:52:27.166Z,1.09
2023-03-21T21:56:27.109Z,1.07
2023-03-21T22:00:27.075Z,1.08
2023-03-21T22:04:27.060Z,1.05
2023-03-21T22:08:26.997Z,1.07
2023-03-21T22:12:26.961Z,1.04
2023-03-21T22:16:26.992Z,1.04
2023-03-21T22:20:26.913Z,1.02
2023-03-21T22:24:26.947Z,0.99
2023-03-21T22:28:26.933Z,1.00
2023-03-21T22:32:26.903Z,0.99
2023-03-21T22:36:26.845Z,0.98
2023-03-21T22:40:26.816Z,0.96
2023-03-21T22:44:26.784Z,0.95
2023-03-21T22:48:26.740Z,0.96
2023-03-21T22:52:26.693Z,0.93
2023-03-21T22:56:26.680Z,0.94
2023-03-21T23:00:26.647Z,0.92
2023-03-21T23:04:26.696Z,0.92
2023-03-21T23:08:26.597Z,0.89
2023-03-21T23:12:26.564Z,0.91
2023-03-21T23:16:26.532Z,0.89
2023-03-21T23:20:26.498Z,0.88
2023-03-21T23:24:26.421Z,0.88
2023-03-21T23:28:26.395Z,0.88
2023-03-21T23:32:26.389Z,0.88
2023-03-21T23:36:26.343Z,0.87
2023-03-21T23:40:26.296Z,0.88
2023-03-21T23:44:26.271Z,0.87
2023-03-21T23:48:26.233Z,0.85
2023-03-21T23:52:26.191Z,0.83
2023-03-21T23:56:26.160Z,0.85
